Time;durP1;ratioP1;P1;durP2;ratioP2;P2;SDS_P1;SDS_P2;PMS_P1;PMS_P2;Temp;Humidity;BMP_temperature;BMP_pressure;BME280_temperature;BME280_humidity;BME280_pressure;Samples;Min_cycle;Max_cycle;Signal;HPM_P1;HPM_P2
2022/03/06 00:02:25;;;;;;;66.40;42.60;;;;;;;-0.65;84.82;99539.61;105106;1270;61411;-77
2022/03/06 00:04:52;;;;;;;67.00;41.80;;;;;;;-0.65;84.99;99538.04;105247;1270;61310;-76
2022/03/06 00:07:18;;;;;;;66.40;43.10;;;;;;;-0.65;85.02;99537.87;105336;1270;61368;-76
2022/03/06 00:09:45;;;;;;;61.80;40.90;;;;;;;-0.65;85.33;99536.47;105335;1270;76674;-76
2022/03/06 00:12:12;;;;;;;61.00;41.20;;;;;;;-0.64;85.28;99540.46;105288;1270;70553;-76
2022/03/06 00:14:38;;;;;;;60.80;40.80;;;;;;;-0.63;85.35;99537.14;105277;1270;72617;-75
2022/03/06 00:17:05;;;;;;;63.60;42.60;;;;;;;-0.62;85.59;99536.26;105288;1270;61327;-76
2022/03/06 00:19:31;;;;;;;62.00;42.10;;;;;;;-0.62;85.76;99535.91;105308;1270;61234;-75
2022/03/06 00:21:58;;;;;;;64.60;42.50;;;;;;;-0.64;85.71;99538.02;105317;1270;61480;-77
2022/03/06 00:24:24;;;;;;;65.30;42.00;;;;;;;-0.64;86.00;99537.48;105319;1270;61137;-77
2022/03/06 00:26:51;;;;;;;62.80;40.10;;;;;;;-0.64;86.23;99533.84;105310;1270;61335;-76
2022/03/06 00:29:17;;;;;;;63.60;40.50;;;;;;;-0.64;86.36;99531.56;105249;1270;61301;-75
2022/03/06 00:31:44;;;;;;;63.20;42.10;;;;;;;-0.64;86.42;99532.96;105297;1270;61289;-76
2022/03/06 00:34:10;;;;;;;60.20;41.40;;;;;;;-0.63;86.51;99530.68;105290;1270;61306;-76
2022/03/06 00:36:39;;;;;;;60.30;40.90;;;;;;;-0.62;86.65;99530.84;105113;1270;61346;-76
2022/03/06 00:39:06;;;;;;;64.60;41.40;;;;;;;-0.61;86.72;99533.64;105299;1271;72886;-77
2022/03/06 00:41:33;;;;;;;59.00;41.00;;;;;;;-0.61;86.94;99533.79;105080;1271;62970;-77
2022/03/06 00:44:00;;;;;;;58.60;38.60;;;;;;;-0.59;87.57;99532.73;105300;1270;61626;-75
2022/03/06 00:46:26;;;;;;;55.00;37.50;;;;;;;-0.60;87.80;99530.13;105298;1270;61162;-76
2022/03/06 00:48:52;;;;;;;61.40;38.60;;;;;;;-0.60;87.91;99530.48;105036;1271;61257;-76
2022/03/06 00:51:19;;;;;;;55.60;38.40;;;;;;;-0.59;88.04;99532.20;105318;1270;61309;-77
2022/03/06 00:53:45;;;;;;;55.70;37.50;;;;;;;-0.59;88.09;99531.32;105182;1270;204268;-76
2022/03/06 00:56:12;;;;;;;54.40;35.70;;;;;;;-0.59;88.19;99527.31;105328;1270;61237;-76
2022/03/06 00:58:39;;;;;;;57.20;37.50;;;;;;;-0.59;88.40;99527.66;105333;1270;61186;-77
2022/03/06 01:01:05;;;;;;;60.10;38.30;;;;;;;-0.59;88.63;99528.17;105260;1270;61357;-75
2022/03/06 01:03:33;;;;;;;58.70;39.40;;;;;;;-0.59;88.65;99529.23;105354;1270;72097;-76
2022/03/06 01:05:59;;;;;;;58.50;37.50;;;;;;;-0.58;88.88;99527.66;105342;1270;61268;-76
2022/03/06 01:08:26;;;;;;;58.30;39.30;;;;;;;-0.57;88.93;99529.40;105325;1270;61297;-76
2022/03/06 01:10:53;;;;;;;60.40;39.90;;;;;;;-0.57;89.03;99526.42;105366;1270;61269;-76
2022/03/06 01:13:20;;;;;;;58.10;39.60;;;;;;;-0.57;89.26;99521.55;105415;1271;70108;-77
2022/03/06 01:15:47;;;;;;;64.30;41.90;;;;;;;-0.57;89.38;99518.73;105481;1270;73167;-77
2022/03/06 01:18:14;;;;;;;56.40;39.60;;;;;;;-0.57;89.96;99522.23;105389;1270;61342;-77
2022/03/06 01:20:41;;;;;;;63.00;41.80;;;;;;;-0.59;90.37;99523.47;105237;1272;61303;-77
2022/03/06 01:23:08;;;;;;;60.20;40.10;;;;;;;-0.62;90.62;99521.42;105452;1270;75658;-76
2022/03/06 01:25:35;;;;;;;54.40;36.70;;;;;;;-0.63;90.98;99519.34;105605;1270;70198;-75
2022/03/06 01:28:02;;;;;;;53.70;37.40;;;;;;;-0.63;91.07;99520.91;104223;1270;1003794;-76
2022/03/06 01:30:29;;;;;;;54.40;35.40;;;;;;;-0.62;91.18;99521.77;105807;1270;61372;-76
2022/03/06 01:32:55;;;;;;;53.40;35.60;;;;;;;-0.60;91.37;99519.66;105898;1270;61353;-75
2022/03/06 01:35:22;;;;;;;51.50;33.90;;;;;;;-0.59;91.40;99521.37;106164;1270;61196;-77
2022/03/06 01:37:48;;;;;;;52.60;34.10;;;;;;;-0.58;91.42;99522.08;108330;1270;61115;-77
2022/03/06 01:40:19;;;;;;;52.70;33.10;;;;;;;-0.58;91.49;99522.23;108459;1270;61213;-76
2022/03/06 01:42:46;;;;;;;;;;;;;;;-0.57;91.58;99520.67;107279;1271;61285;-74
2022/03/06 01:45:14;;;;;;;54.70;35.70;;;;;;;-0.58;91.66;99516.84;106375;1271;61131;-77
2022/03/06 01:47:41;;;;;;;50.80;32.70;;;;;;;-0.58;91.79;99515.44;106920;1270;75257;-75
2022/03/06 01:50:20;;;;;;;51.90;33.00;;;;;;;-0.57;91.84;99515.60;105316;1270;70456;-75
2022/03/06 01:52:50;;;;;;;50.80;35.00;;;;;;;-0.57;91.95;99518.55;105410;1270;73193;-74
2022/03/06 01:55:19;;;;;;;53.20;33.70;;;;;;;-0.57;92.06;99515.09;105348;1270;62165;-77
2022/03/06 01:57:46;;;;;;;51.10;34.30;;;;;;;-0.58;92.24;99513.86;105448;1270;61229;-77
2022/03/06 02:00:17;;;;;;;51.00;33.50;;;;;;;-0.58;92.17;99514.20;105367;1271;75127;-75
2022/03/06 02:02:44;;;;;;;48.50;32.10;;;;;;;-0.58;92.25;99515.96;105142;1271;69109;-75
2022/03/06 02:05:10;;;;;;;49.70;30.10;;;;;;;-0.58;92.43;99511.94;105318;1270;73318;-76
2022/03/06 02:07:38;;;;;;;50.40;32.30;;;;;;;-0.59;92.46;99516.15;105378;1271;61335;-76
2022/03/06 02:10:06;;;;;;;45.80;30.90;;;;;;;-0.60;92.50;99514.05;105262;1271;61404;-76
2022/03/06 02:12:33;;;;;;;46.30;30.00;;;;;;;-0.60;92.62;99517.38;105136;1273;76084;-75
2022/03/06 02:15:02;;;;;;;43.30;29.10;;;;;;;-0.60;92.79;99516.51;105313;1271;69571;-75
2022/03/06 02:17:29;;;;;;;47.40;29.30;;;;;;;-0.61;92.85;99517.56;105063;1271;72217;-76
2022/03/06 02:20:20;;;;;;;44.30;29.10;;;;;;;-0.62;92.94;99517.95;105289;1270;61302;-76
2022/03/06 02:22:49;;;;;;;44.30;29.10;;;;;;;-0.62;92.98;99514.79;105297;1271;62388;-76
2022/03/06 02:25:17;;;;;;;44.40;29.10;;;;;;;-0.61;93.06;99516.68;105342;1270;75151;-76
2022/03/06 02:27:45;;;;;;;44.20;29.90;;;;;;;-0.61;93.20;99511.81;105344;1270;68602;-76
2022/03/06 02:30:15;;;;;;;44.50;29.20;;;;;;;-0.61;93.28;99510.77;105305;1270;73144;-75
2022/03/06 02:32:45;;;;;;;43.40;28.70;;;;;;;-0.63;93.32;99505.91;105415;1270;61400;-76
2022/03/06 02:35:12;;;;;;;42.50;28.50;;;;;;;-0.63;93.40;99503.63;105306;1270;61204;-75
2022/03/06 02:37:39;;;;;;;46.20;30.00;;;;;;;-0.63;93.51;99498.58;105163;1271;76341;-76
2022/03/06 02:40:08;;;;;;;48.90;30.70;;;;;;;-0.64;93.48;99500.67;105265;1271;68841;-74
2022/03/06 02:42:37;;;;;;;38.40;26.10;;;;;;;-0.63;93.72;99500.48;105593;1270;74127;-77
2022/03/06 02:45:09;;;;;;;53.80;28.10;;;;;;;-0.64;93.78;99497.18;105317;1270;61328;-75
2022/03/06 02:47:36;;;;;;;45.80;28.90;;;;;;;-0.64;93.69;99495.80;105073;1273;61348;-76
2022/03/06 02:50:06;;;;;;;40.20;27.80;;;;;;;-0.64;93.86;99494.57;105269;1271;74598;-76
2022/03/06 02:52:33;;;;;;;41.70;26.40;;;;;;;-0.65;93.95;99492.33;105412;1271;68894;-75
2022/03/06 02:55:00;;;;;;;40.90;26.80;;;;;;;-0.65;93.98;99493.02;105312;1271;73265;-76
2022/03/06 02:57:26;;;;;;;38.40;26.60;;;;;;;-0.65;93.94;99489.53;105352;1271;61382;-76
2022/03/06 02:59:53;;;;;;;39.60;26.40;;;;;;;-0.65;93.98;99492.31;105290;1271;61209;-77
2022/03/06 03:02:19;;;;;;;40.90;27.10;;;;;;;-0.66;94.13;99493.56;105277;1271;61189;-75
2022/03/06 03:04:46;;;;;;;40.90;28.00;;;;;;;-0.68;94.32;99489.92;105292;1271;61262;-77
2022/03/06 03:07:13;;;;;;;39.80;26.50;;;;;;;-0.68;94.22;99491.15;105130;1271;73457;-77
2022/03/06 03:09:40;;;;;;;41.20;26.40;;;;;;;-0.68;94.15;99491.13;105254;1271;61269;-76
2022/03/06 03:12:07;;;;;;;38.90;25.70;;;;;;;-0.68;94.02;99494.10;105264;1271;61373;-78
2022/03/06 03:14:35;;;;;;;42.50;26.70;;;;;;;-0.68;94.20;99494.63;105591;1271;74658;-77
2022/03/06 03:17:03;;;;;;;40.60;27.10;;;;;;;-0.69;94.20;99493.75;105323;1271;70082;-77
2022/03/06 03:19:30;;;;;;;43.60;28.70;;;;;;;-0.69;94.30;99497.60;104960;1272;73215;-76
2022/03/06 03:21:57;;;;;;;41.20;27.10;;;;;;;-0.71;94.12;99496.92;105331;1271;61265;-76
2022/03/06 03:24:24;;;;;;;40.50;26.60;;;;;;;-0.70;94.10;99501.63;105249;1271;61795;-76
2022/03/06 03:26:51;;;;;;;36.50;25.80;;;;;;;-0.70;93.81;99500.58;105291;1270;76196;-76
2022/03/06 03:29:19;;;;;;;40.20;25.40;;;;;;;-0.71;93.67;99499.91;105415;1271;69428;-77
2022/03/06 03:31:45;;;;;;;44.20;26.10;;;;;;;-0.70;93.64;99501.80;105101;1270;73144;-77
2022/03/06 03:34:12;;;;;;;40.40;26.60;;;;;;;-0.71;93.71;99503.20;105243;1271;61319;-76
2022/03/06 03:36:39;;;;;;;35.40;24.30;;;;;;;-0.71;93.70;99502.86;105242;1272;61196;-77
2022/03/06 03:39:07;;;;;;;39.60;26.60;;;;;;;-0.71;93.57;99501.81;105535;1271;74251;-77
2022/03/06 03:41:34;;;;;;;39.60;26.00;;;;;;;-0.71;93.61;99504.08;105295;1271;69252;-76
2022/03/06 03:44:02;;;;;;;37.80;25.00;;;;;;;-0.73;93.82;99507.08;105342;1270;73174;-76
2022/03/06 03:46:28;;;;;;;36.60;25.30;;;;;;;-0.73;93.60;99503.95;105293;1271;61259;-76
2022/03/06 03:48:55;;;;;;;35.60;24.00;;;;;;;-0.74;93.58;99505.70;105268;1271;61148;-76
2022/03/06 03:51:21;;;;;;;37.60;24.20;;;;;;;-0.74;93.49;99507.09;105226;1271;61350;-76
2022/03/06 03:53:48;;;;;;;37.40;24.60;;;;;;;-0.74;93.57;99511.27;105228;1271;61358;-77
2022/03/06 03:56:14;;;;;;;37.80;26.30;;;;;;;-0.74;93.42;99511.12;105245;1270;74169;-75
2022/03/06 03:58:41;;;;;;;38.40;25.20;;;;;;;-0.74;93.36;99511.29;105217;1271;61438;-76
2022/03/06 04:01:07;;;;;;;39.40;25.30;;;;;;;-0.74;93.25;99512.14;105268;1271;61338;-77
2022/03/06 04:03:34;;;;;;;37.20;24.50;;;;;;;-0.73;93.21;99512.67;105259;1271;61325;-76
2022/03/06 04:06:00;;;;;;;37.90;25.80;;;;;;;-0.73;93.30;99513.17;105253;1271;61333;-76
2022/03/06 04:08:27;;;;;;;36.60;26.80;;;;;;;-0.73;93.31;99514.06;105319;1271;61273;-76
2022/03/06 04:10:56;;;;;;;36.20;25.20;;;;;;;-0.72;93.32;99516.48;105298;1271;61279;-76
2022/03/06 04:13:23;;;;;;;36.30;27.00;;;;;;;-0.72;93.44;99519.80;105319;1271;61743;-76
2022/03/06 04:15:50;;;;;;;39.10;26.70;;;;;;;-0.72;93.37;99520.14;105306;1270;74571;-76
2022/03/06 04:18:16;;;;;;;37.40;24.80;;;;;;;-0.73;93.43;99517.21;105547;1270;61125;-77
2022/03/06 04:20:43;;;;;;;39.20;25.80;;;;;;;-0.72;93.42;99518.23;105464;1271;61351;-76
2022/03/06 04:23:10;;;;;;;40.20;26.90;;;;;;;-0.72;93.41;99517.02;107011;1270;61173;-75
2022/03/06 04:25:36;;;;;;;37.20;24.80;;;;;;;-0.72;93.45;99516.67;106932;1270;61256;-75
2022/03/06 04:28:03;;;;;;;32.50;23.10;;;;;;;-0.73;93.45;99520.86;105698;1271;61305;-75
2022/03/06 04:30:30;;;;;;;35.20;24.50;;;;;;;-0.73;93.49;99524.35;105053;1271;68874;-76
2022/03/06 04:32:56;;;;;;;39.40;26.50;;;;;;;-0.73;93.53;99526.11;105269;1271;71253;-76
2022/03/06 04:35:23;;;;;;;40.40;25.00;;;;;;;-0.73;93.48;99523.84;105233;1271;61296;-76
2022/03/06 04:37:50;;;;;;;42.50;26.80;;;;;;;-0.72;93.59;99524.88;105247;1271;61574;-75
2022/03/06 04:40:17;;;;;;;39.90;27.10;;;;;;;-0.74;93.64;99526.11;105428;1270;75976;-76
2022/03/06 04:42:43;;;;;;;40.30;25.80;;;;;;;-0.74;93.54;99525.40;105219;1270;70446;-75
2022/03/06 04:45:10;;;;;;;37.10;26.30;;;;;;;-0.74;93.61;99528.38;105245;1270;74102;-77
2022/03/06 04:47:37;;;;;;;39.50;26.40;;;;;;;-0.74;93.70;99527.34;105290;1270;61387;-75
2022/03/06 04:50:04;;;;;;;35.90;24.30;;;;;;;-0.75;93.69;99526.98;105306;1270;61324;-76
2022/03/06 04:52:31;;;;;;;37.50;26.20;;;;;;;-0.76;93.74;99525.61;105424;1270;74285;-76
2022/03/06 04:54:57;;;;;;;37.10;25.40;;;;;;;-0.75;93.78;99524.55;105216;1270;61299;-76
2022/03/06 04:57:24;;;;;;;35.70;25.60;;;;;;;-0.75;93.76;99522.99;105213;1271;61234;-76
2022/03/06 04:59:50;;;;;;;37.60;25.60;;;;;;;-0.76;93.88;99526.65;105207;1271;61158;-76
2022/03/06 05:02:16;;;;;;;39.50;25.90;;;;;;;-0.76;93.93;99524.05;105224;1270;61157;-76
2022/03/06 05:04:43;;;;;;;39.60;26.10;;;;;;;-0.77;94.03;99523.36;105175;1270;61398;-75
2022/03/06 05:07:09;;;;;;;36.30;24.80;;;;;;;-0.78;94.06;99525.11;105045;1271;61296;-76
2022/03/06 05:09:36;;;;;;;38.10;25.80;;;;;;;-0.78;94.16;99520.92;105128;1270;61377;-76
2022/03/06 05:12:03;;;;;;;37.80;25.40;;;;;;;-0.79;94.09;99520.95;105191;1270;61369;-76
2022/03/06 05:14:29;;;;;;;33.90;23.80;;;;;;;-0.79;94.20;99525.30;105202;1270;61314;-76
2022/03/06 05:16:56;;;;;;;35.40;25.10;;;;;;;-0.81;94.26;99524.28;105083;1273;61273;-76
2022/03/06 05:19:22;;;;;;;35.30;24.80;;;;;;;-0.81;94.10;99522.36;105223;1271;61283;-75
2022/03/06 05:21:49;;;;;;;35.90;24.00;;;;;;;-0.82;94.42;99522.89;105152;1270;61246;-75
2022/03/06 05:24:15;;;;;;;36.30;24.00;;;;;;;-0.82;94.28;99526.20;105172;1270;61400;-77
2022/03/06 05:26:42;;;;;;;36.10;24.10;;;;;;;-0.83;94.07;99530.75;105059;1270;61373;-77
2022/03/06 05:29:09;;;;;;;38.10;23.90;;;;;;;-0.82;94.10;99529.70;105140;1270;75384;-76
2022/03/06 05:31:36;;;;;;;38.20;24.10;;;;;;;-0.82;94.07;99532.13;105234;1270;67249;-76
2022/03/06 05:34:02;;;;;;;35.70;23.80;;;;;;;-0.82;93.98;99528.65;105193;1270;61241;-76
2022/03/06 05:36:28;;;;;;;33.60;22.70;;;;;;;-0.81;94.05;99531.44;105060;1271;61518;-75
2022/03/06 05:38:55;;;;;;;35.70;23.80;;;;;;;-0.81;93.83;99533.17;105236;1270;61312;-75
2022/03/06 05:41:22;;;;;;;36.70;24.70;;;;;;;-0.79;93.73;99531.58;105218;1270;61258;-75
2022/03/06 05:43:48;;;;;;;34.80;23.00;;;;;;;-0.80;93.71;99530.02;105120;1270;68223;-76
2022/03/06 05:46:15;;;;;;;34.00;22.60;;;;;;;-0.79;93.55;99526.36;105193;1270;61197;-76
2022/03/06 05:48:41;;;;;;;31.90;23.30;;;;;;;-0.78;93.05;99528.09;105180;1270;61302;-77
2022/03/06 05:51:09;;;;;;;33.50;22.90;;;;;;;-0.76;92.98;99524.21;105040;1271;61406;-77
2022/03/06 05:53:35;;;;;;;35.10;23.20;;;;;;;-0.74;92.75;99521.75;105165;1270;76118;-76
2022/03/06 05:56:02;;;;;;;35.30;21.20;;;;;;;-0.72;92.67;99521.90;105177;1270;61211;-75
2022/03/06 05:58:29;;;;;;;31.90;21.40;;;;;;;-0.71;92.28;99521.89;105029;1271;73561;-75
2022/03/06 06:00:55;;;;;;;28.70;21.00;;;;;;;-0.69;91.88;99521.33;105224;1270;61294;-77
2022/03/06 06:03:22;;;;;;;33.30;23.10;;;;;;;-0.67;91.71;99522.18;105227;1270;61226;-75
2022/03/06 06:05:49;;;;;;;31.40;22.20;;;;;;;-0.65;91.71;99524.77;105143;1270;61301;-76
2022/03/06 06:08:15;;;;;;;36.00;24.70;;;;;;;-0.63;91.67;99525.95;105235;1270;69188;-75
2022/03/06 06:10:43;;;;;;;32.00;22.80;;;;;;;-0.60;91.61;99527.17;105107;1270;61397;-76
2022/03/06 06:13:09;;;;;;;29.20;20.30;;;;;;;-0.57;91.36;99527.30;105206;1270;61238;-78
2022/03/06 06:15:37;;;;;;;29.50;19.70;;;;;;;-0.55;91.15;99528.14;105028;1271;61245;-77
2022/03/06 06:18:03;;;;;;;29.40;20.20;;;;;;;-0.52;90.95;99531.59;105233;1271;75059;-76
2022/03/06 06:20:30;;;;;;;25.80;18.80;;;;;;;-0.49;90.57;99531.38;105253;1270;61289;-77
2022/03/06 06:22:56;;;;;;;26.50;18.80;;;;;;;-0.47;90.15;99530.81;105240;1270;61381;-77
2022/03/06 06:25:23;;;;;;;25.30;17.90;;;;;;;-0.43;89.82;99534.77;105268;1270;61728;-76
2022/03/06 06:27:49;;;;;;;28.60;19.20;;;;;;;-0.40;89.68;99533.17;105263;1269;61146;-76
2022/03/06 06:30:16;;;;;;;22.30;16.30;;;;;;;-0.37;89.66;99538.71;105239;1270;61372;-76
2022/03/06 06:32:42;;;;;;;22.80;16.90;;;;;;;-0.34;88.58;99535.71;105262;1270;61241;-76
2022/03/06 06:35:09;;;;;;;25.90;16.20;;;;;;;-0.32;88.36;99541.77;105207;1270;61685;-75
2022/03/06 06:37:35;;;;;;;19.70;15.10;;;;;;;-0.30;87.73;99539.48;105206;1270;61479;-75
2022/03/06 06:40:03;;;;;;;19.60;13.70;;;;;;;-0.29;87.34;99540.69;105310;1270;61407;-76
2022/03/06 06:42:29;;;;;;;21.00;13.70;;;;;;;-0.27;87.07;99541.20;105221;1270;76648;-76
2022/03/06 06:44:56;;;;;;;21.00;13.60;;;;;;;-0.26;86.60;99544.31;105177;1270;70756;-76
2022/03/06 06:47:22;;;;;;;18.90;13.40;;;;;;;-0.23;86.81;99546.55;105129;1270;62007;-76
2022/03/06 06:49:49;;;;;;;18.90;13.40;;;;;;;-0.21;86.26;99551.05;105213;1270;61407;-76
2022/03/06 06:52:15;;;;;;;17.80;12.40;;;;;;;-0.20;85.50;99549.99;105241;1270;61189;-75
2022/03/06 06:54:42;;;;;;;16.80;11.80;;;;;;;-0.19;84.97;99552.59;105196;1270;61368;-76
2022/03/06 06:57:09;;;;;;;14.00;11.20;;;;;;;-0.18;84.42;99555.73;105220;1270;70388;-76
2022/03/06 06:59:35;;;;;;;16.20;10.00;;;;;;;-0.18;83.33;99551.19;105149;1270;74264;-77
2022/03/06 07:02:02;;;;;;;14.50;10.40;;;;;;;-0.17;82.99;99551.54;105222;1270;61392;-77
2022/03/06 07:04:28;;;;;;;14.40;10.20;;;;;;;-0.18;82.64;99552.23;105277;1270;61830;-75
2022/03/06 07:06:55;;;;;;;16.90;11.50;;;;;;;-0.17;82.61;99548.38;105097;1270;61397;-75
2022/03/06 07:09:21;;;;;;;18.20;13.10;;;;;;;-0.16;82.54;99547.48;105190;1270;61183;-76
2022/03/06 07:11:48;;;;;;;15.30;11.60;;;;;;;-0.14;82.36;99547.27;105155;1270;61396;-76
2022/03/06 07:14:14;;;;;;;18.00;11.90;;;;;;;-0.14;82.10;99546.05;105312;1270;61254;-77
2022/03/06 07:16:43;;;;;;;17.10;12.00;;;;;;;-0.11;81.68;99548.81;105330;1270;61384;-75
2022/03/06 07:19:09;;;;;;;21.40;13.30;;;;;;;-0.10;81.40;99548.98;105295;1269;76978;-76
2022/03/06 07:21:37;;;;;;;18.00;11.70;;;;;;;-0.09;81.24;99549.48;105298;1270;61324;-77
2022/03/06 07:24:05;;;;;;;20.30;13.70;;;;;;;-0.09;81.10;99548.95;105314;1270;73158;-76
2022/03/06 07:26:32;;;;;;;19.40;13.70;;;;;;;-0.06;81.19;99549.78;105295;1270;61413;-76
2022/03/06 07:28:58;;;;;;;18.10;12.30;;;;;;;-0.04;80.63;99553.77;105248;1270;61373;-77
2022/03/06 07:31:25;;;;;;;16.20;10.40;;;;;;;-0.02;80.21;99550.42;105168;1270;61247;-76
2022/03/06 07:33:51;;;;;;;19.90;12.00;;;;;;;-0.01;80.00;99547.44;105190;1270;61372;-76
2022/03/06 07:36:18;;;;;;;16.30;11.80;;;;;;;0.02;80.02;99549.83;105194;1270;73435;-78
2022/03/06 07:38:45;;;;;;;15.70;10.40;;;;;;;0.04;79.64;99548.42;105207;1270;61409;-76
2022/03/06 07:41:12;;;;;;;13.60;9.60;;;;;;;0.05;78.82;99550.48;105309;1270;61254;-77
2022/03/06 07:43:39;;;;;;;13.90;9.40;;;;;;;0.05;78.82;99545.41;105312;1270;75172;-76
2022/03/06 07:46:05;;;;;;;11.40;8.90;;;;;;;0.07;78.59;99546.96;105358;1270;68142;-77
2022/03/06 07:48:32;;;;;;;11.80;9.20;;;;;;;0.10;78.11;99548.67;105341;1270;71029;-76
2022/03/06 07:50:58;;;;;;;10.10;7.10;;;;;;;0.10;78.03;99546.75;105302;1270;61243;-78
2022/03/06 07:53:25;;;;;;;11.50;8.40;;;;;;;0.12;77.78;99547.08;105340;1270;61279;-77
2022/03/06 07:55:51;;;;;;;9.70;7.40;;;;;;;0.13;77.36;99541.98;105313;1270;61404;-76
2022/03/06 07:58:18;;;;;;;10.60;7.00;;;;;;;0.13;76.68;99543.91;105409;1270;61359;-75
2022/03/06 08:00:44;;;;;;;12.20;8.90;;;;;;;0.13;76.88;99538.14;105442;1270;73205;-76
2022/03/06 08:03:12;;;;;;;10.60;7.60;;;;;;;0.14;76.37;99535.33;105560;1270;61337;-77
2022/03/06 08:05:39;;;;;;;11.10;7.90;;;;;;;0.15;75.95;99534.61;105784;1270;61259;-76
2022/03/06 08:08:05;;;;;;;12.30;7.80;;;;;;;0.18;76.25;99534.91;105897;1270;75369;-76
2022/03/06 08:10:32;;;;;;;9.90;7.80;;;;;;;0.23;76.14;99537.10;105997;1270;70544;-77
2022/03/06 08:12:58;;;;;;;8.70;7.10;;;;;;;0.26;75.35;99537.06;106655;1270;74502;-76
2022/03/06 08:15:26;;;;;;;8.30;6.50;;;;;;;0.25;75.03;99538.30;107249;1270;59217;-77
2022/03/06 08:17:52;;;;;;;9.50;7.60;;;;;;;0.24;74.86;99538.48;107539;1270;61128;-75
2022/03/06 08:20:19;;;;;;;9.70;6.50;;;;;;;0.25;74.86;99538.66;108626;1269;58911;-76
2022/03/06 08:22:45;;;;;;;9.60;6.70;;;;;;;0.25;74.61;99538.48;108623;1270;58787;-77
2022/03/06 08:25:12;;;;;;;9.40;7.20;;;;;;;0.27;74.99;99540.54;108276;1270;59905;-76
2022/03/06 08:27:38;;;;;;;10.80;7.70;;;;;;;0.30;74.24;99540.14;108413;1270;61278;-76
2022/03/06 08:30:06;;;;;;;10.70;7.50;;;;;;;0.30;73.73;99538.92;106160;1270;61421;-77
2022/03/06 08:32:37;;;;;;;10.60;7.30;;;;;;;0.30;73.91;99539.79;105113;1269;75350;-76
2022/03/06 08:35:04;;;;;;;12.10;7.60;;;;;;;0.31;74.12;99540.30;105285;1270;67296;-75
2022/03/06 08:37:30;;;;;;;10.60;7.90;;;;;;;0.33;74.38;99536.07;105099;1270;73340;-77
2022/03/06 08:39:56;;;;;;;11.70;7.70;;;;;;;0.37;74.41;99538.27;105197;1271;61454;-77
2022/03/06 08:42:23;;;;;;;10.60;7.50;;;;;;;0.40;74.10;99534.90;105328;1270;61368;-76
2022/03/06 08:44:50;;;;;;;11.70;7.00;;;;;;;0.41;73.81;99531.02;105416;1270;73377;-76
2022/03/06 08:47:17;;;;;;;10.60;8.00;;;;;;;0.43;73.68;99530.66;105586;1270;70146;-76
2022/03/06 08:49:44;;;;;;;10.20;7.30;;;;;;;0.44;74.08;99533.60;106993;1270;73161;-77
2022/03/06 08:52:11;;;;;;;9.60;7.70;;;;;;;0.49;73.78;99530.20;105257;1270;1003133;-76
2022/03/06 08:54:38;;;;;;;10.80;8.50;;;;;;;0.51;73.23;99528.23;105548;1270;61303;-75
2022/03/06 08:57:04;;;;;;;12.50;8.40;;;;;;;0.56;73.20;99529.73;105296;1268;75124;-76
2022/03/06 08:59:31;;;;;;;13.20;9.30;;;;;;;0.58;73.14;99527.59;105298;1270;68702;-75
2022/03/06 09:01:58;;;;;;;16.10;9.70;;;;;;;0.59;73.22;99526.53;105163;1270;73466;-76
2022/03/06 09:04:25;;;;;;;11.60;8.80;;;;;;;0.61;73.24;99526.30;105331;1270;61427;-76
2022/03/06 09:06:52;;;;;;;18.80;12.20;;;;;;;0.63;73.04;99528.38;105252;1270;61718;-77
2022/03/06 09:09:19;;;;;;;20.30;13.30;;;;;;;0.60;72.90;99525.63;105402;1270;75578;-76
2022/03/06 09:11:46;;;;;;;12.60;9.20;;;;;;;0.57;72.85;99524.80;105318;1270;68893;-77
2022/03/06 09:14:12;;;;;;;16.60;11.60;;;;;;;0.56;72.95;99530.07;105330;1270;73308;-77
2022/03/06 09:16:39;;;;;;;22.50;13.40;;;;;;;0.55;73.03;99526.94;105290;1270;61271;-75
2022/03/06 09:19:06;;;;;;;25.10;13.20;;;;;;;0.57;72.91;99532.34;105343;1270;62106;-75
2022/03/06 09:21:33;;;;;;;21.10;13.50;;;;;;;0.58;72.84;99529.15;105288;1270;76716;-76
2022/03/06 09:24:00;;;;;;;17.80;11.00;;;;;;;0.62;72.67;99529.97;105267;1270;70148;-76
2022/03/06 09:26:27;;;;;;;13.40;8.60;;;;;;;0.62;72.21;99527.17;105317;1270;72991;-75
2022/03/06 09:28:54;;;;;;;16.20;9.90;;;;;;;0.62;71.87;99531.20;105325;1270;61388;-75
2022/03/06 09:31:22;;;;;;;13.10;7.90;;;;;;;0.61;71.77;99526.49;105337;1270;61247;-76
2022/03/06 09:33:49;;;;;;;8.80;6.60;;;;;;;0.59;71.19;99529.66;105272;1270;76631;-75
2022/03/06 09:36:16;;;;;;;8.30;6.40;;;;;;;0.57;71.32;99529.54;105137;1271;69480;-75
2022/03/06 09:38:43;;;;;;;7.50;6.10;;;;;;;0.54;70.47;99531.15;105282;1270;74288;-75
2022/03/06 09:41:18;;;;;;;10.20;6.20;;;;;;;0.49;70.36;99531.26;105299;1270;61273;-75
2022/03/06 09:43:46;;;;;;;9.00;7.70;;;;;;;0.44;70.49;99530.98;105212;1270;61252;-76
2022/03/06 09:46:13;;;;;;;9.80;8.20;;;;;;;0.46;70.79;99531.14;105268;1270;74954;-76
2022/03/06 09:48:40;;;;;;;8.00;6.80;;;;;;;0.47;70.86;99530.77;105325;1270;69368;-77
2022/03/06 09:51:07;;;;;;;10.10;7.40;;;;;;;0.50;70.80;99532.81;105129;1270;72801;-77
2022/03/06 09:53:34;;;;;;;12.30;7.80;;;;;;;0.55;70.88;99533.23;105288;1270;61265;-76
2022/03/06 09:56:02;;;;;;;12.10;9.80;;;;;;;0.58;71.09;99526.19;105304;1270;61234;-76
2022/03/06 09:58:29;;;;;;;10.50;7.60;;;;;;;0.63;71.02;99527.67;105331;1269;74210;-76
2022/03/06 10:00:57;;;;;;;9.50;6.70;;;;;;;0.66;70.46;99531.30;105035;1270;69934;-75
2022/03/06 10:03:25;;;;;;;8.10;6.10;;;;;;;0.64;69.83;99529.56;105316;1270;71686;-76
2022/03/06 10:05:52;;;;;;;8.10;5.70;;;;;;;0.61;69.51;99531.71;105344;1270;61398;-75
2022/03/06 10:08:23;;;;;;;7.80;5.40;;;;;;;0.58;69.32;99531.61;103109;1270;1003876;-77
2022/03/06 10:10:54;;;;;;;8.90;5.70;;;;;;;0.57;69.26;99531.09;105295;1270;75342;-77
2022/03/06 10:13:28;;;;;;;9.20;6.10;;;;;;;0.59;69.24;99529.67;105454;1270;69818;-76
2022/03/06 10:16:15;;;;;;;10.90;6.20;;;;;;;0.62;69.25;99529.61;105289;1270;72873;-79
2022/03/06 10:18:51;;;;;;;8.00;5.90;;;;;;;0.67;69.27;99531.62;105347;1269;61170;-76
2022/03/06 10:21:28;;;;;;;7.80;5.70;;;;;;;0.73;69.39;99530.30;105257;1270;61380;-77
2022/03/06 10:24:08;;;;;;;8.30;6.20;;;;;;;0.77;69.00;99530.92;105572;1270;74992;-76
2022/03/06 10:26:37;;;;;;;7.90;5.60;;;;;;;0.83;68.87;99530.46;105297;1270;69279;-76
2022/03/06 10:29:05;;;;;;;27.40;18.10;;;;;;;0.86;68.45;99532.33;105312;1270;74651;-77
2022/03/06 10:31:34;;;;;;;12.80;8.90;;;;;;;0.83;67.57;99528.36;105347;1270;61264;-77
2022/03/06 10:34:14;;;;;;;8.10;6.30;;;;;;;0.82;68.28;99529.61;105224;1270;61182;-76
2022/03/06 10:36:54;;;;;;;7.80;5.80;;;;;;;0.85;67.97;99525.88;105302;1270;74759;-76
2022/03/06 10:39:23;;;;;;;8.70;5.70;;;;;;;0.87;67.69;99525.50;105328;1270;69215;-76
2022/03/06 10:41:55;;;;;;;7.80;6.90;;;;;;;0.88;67.77;99525.82;105166;1270;73608;-76
2022/03/06 10:44:43;;;;;;;7.90;5.50;;;;;;;0.89;67.16;99522.66;105347;1270;61386;-76
2022/03/06 10:47:11;;;;;;;10.10;6.80;;;;;;;0.88;67.59;99522.14;105295;1269;61254;-76
2022/03/06 10:49:38;;;;;;;8.60;6.10;;;;;;;0.94;67.66;99522.38;105130;1270;75990;-76
2022/03/06 10:52:17;;;;;;;10.30;6.80;;;;;;;0.96;67.31;99521.45;105119;1270;70446;-77
2022/03/06 10:54:55;;;;;;;5.90;4.60;;;;;;;0.99;67.33;99515.63;105423;1270;74467;-76
2022/03/06 10:57:24;;;;;;;7.70;5.30;;;;;;;1.05;67.23;99517.60;105280;1270;61343;-75
2022/03/06 10:59:55;;;;;;;6.60;5.70;;;;;;;1.10;66.95;99514.19;105282;1270;61186;-75
2022/03/06 11:02:25;;;;;;;9.00;6.00;;;;;;;1.14;66.92;99511.50;105334;1270;76000;-78
2022/03/06 11:04:56;;;;;;;8.30;6.20;;;;;;;1.19;66.65;99507.70;104734;1270;1002959;-76
2022/03/06 11:07:49;;;;;;;8.50;6.90;;;;;;;1.25;66.77;99507.40;105355;1270;71219;-76
2022/03/06 11:10:18;;;;;;;10.90;7.70;;;;;;;1.34;66.63;99503.73;105133;1274;61362;-76
2022/03/06 11:12:47;;;;;;;10.50;8.10;;;;;;;1.41;66.35;99500.06;104944;1274;61387;-75
2022/03/06 11:15:16;;;;;;;7.00;6.20;;;;;;;1.44;65.88;99499.99;105144;1272;74048;-74
2022/03/06 11:17:45;;;;;;;7.80;5.90;;;;;;;1.41;65.07;99495.70;105203;1273;69697;-77